Terminal Aerodrome Forecast
Issued by NWS Cleveland, OH

Home | Current Version | Previous Version | Text Only | Print | Product List | Glossary On
Versions: 1 2 3 4 5 6 7 8 9 10 11 12 13 14 15 16 17 18
000
FTUS41 KCLE 202300
TAFCAK
TAF
KCAK 202327Z 2100/2124 20010KT P6SM SCT045
     FM210400 21010KT P6SM VCTS BKN045CB
     FM211000 22010KT 6SM -SHRA BR SCT015 OVC030
     FM211600 26011KT P6SM BKN035
     FM212000 29014G20KT P6SM VCSH BKN035=

USA.gov is the U.S. government's official web portal to all federal, state and local government web resources and services.